createdAt,value
2018-02-21T00:01:56.838Z,69.72
2018-02-21T00:04:24.321Z,70.12
2018-02-21T00:06:51.769Z,70.09
2018-02-21T00:09:19.268Z,69.35
2018-02-21T00:11:46.738Z,69.89
2018-02-21T00:14:14.185Z,69.40
2018-02-21T00:16:41.665Z,69.82
2018-02-21T00:19:09.113Z,69.01
2018-02-21T00:21:36.949Z,70.00
2018-02-21T00:24:04.909Z,70.02
2018-02-21T00:26:32.361Z,70.04
2018-02-21T00:29:00.070Z,69.57
2018-02-21T00:31:27.603Z,69.22
2018-02-21T00:33:55.225Z,69.50
2018-02-21T00:36:22.710Z,69.34
2018-02-21T00:38:50.169Z,69.58
2018-02-21T00:41:17.822Z,69.83
2018-02-21T00:43:45.265Z,69.70
2018-02-21T00:46:12.930Z,70.71
2018-02-21T00:48:40.394Z,69.88
2018-02-21T00:51:07.850Z,70.02
2018-02-21T00:53:35.317Z,69.23
2018-02-21T00:56:02.765Z,69.24
2018-02-21T00:58:30.249Z,70.03
2018-02-21T01:00:57.701Z,69.49
2018-02-21T01:03:25.146Z,69.57
2018-02-21T01:05:52.636Z,70.35
2018-02-21T01:08:20.164Z,70.27
2018-02-21T01:10:47.832Z,69.40
2018-02-21T01:13:15.309Z,69.54
2018-02-21T01:15:42.756Z,69.62
2018-02-21T01:18:10.225Z,69.90
2018-02-21T01:20:37.672Z,70.49
2018-02-21T01:23:05.158Z,71.74
2018-02-21T01:25:32.609Z,72.44
2018-02-21T01:28:00.174Z,72.60
2018-02-21T01:30:27.845Z,72.04
2018-02-21T01:32:55.294Z,71.35
2018-02-21T01:35:22.984Z,70.80
2018-02-21T01:37:50.436Z,70.54
2018-02-21T01:40:18.028Z,69.64
2018-02-21T01:42:45.560Z,69.41
2018-02-21T01:45:13.029Z,69.43
2018-02-21T01:47:40.645Z,68.57
2018-02-21T01:50:08.093Z,68.66
2018-02-21T01:52:35.544Z,68.93
2018-02-21T01:55:03.010Z,69.89
2018-02-21T01:57:30.469Z,70.48
2018-02-21T01:59:57.969Z,71.64
2018-02-21T02:02:25.418Z,71.66
2018-02-21T02:04:52.866Z,71.96
2018-02-21T02:07:20.332Z,71.77
2018-02-21T02:09:47.781Z,71.13
2018-02-21T02:12:15.437Z,70.94
2018-02-21T02:14:42.890Z,71.12
2018-02-21T02:17:10.377Z,70.70
2018-02-21T02:19:37.842Z,69.91
2018-02-21T02:22:05.289Z,69.08
2018-02-21T02:24:33.005Z,68.73
2018-02-21T02:27:00.732Z,68.79
2018-02-21T02:29:28.241Z,68.52
2018-02-21T02:31:55.710Z,69.47
2018-02-21T02:34:23.166Z,69.49
2018-02-21T02:36:50.872Z,69.85
2018-02-21T02:39:30.069Z,70.34
2018-02-21T02:41:57.564Z,70.17
2018-02-21T02:44:25.033Z,70.31
2018-02-21T02:46:52.502Z,70.30
2018-02-21T02:49:20.537Z,70.83
2018-02-21T02:51:47.998Z,71.23
2018-02-21T02:54:15.729Z,72.39
2018-02-21T02:56:43.185Z,73.05
2018-02-21T02:59:10.653Z,72.88
2018-02-21T03:01:38.117Z,72.04
2018-02-21T03:04:05.596Z,71.30
2018-02-21T03:06:33.397Z,70.54
2018-02-21T03:09:00.841Z,70.32
2018-02-21T03:11:28.289Z,69.98
2018-02-21T03:13:55.752Z,70.75
2018-02-21T03:16:23.228Z,70.81
2018-02-21T03:18:50.716Z,70.72
2018-02-21T03:21:18.182Z,70.91
2018-02-21T03:23:45.641Z,71.01
2018-02-21T03:26:13.110Z,70.86
2018-02-21T03:28:40.558Z,70.45
2018-02-21T03:31:08.222Z,71.03
2018-02-21T03:33:35.675Z,71.00
2018-02-21T03:36:03.121Z,71.32
2018-02-21T03:38:30.590Z,71.33
2018-02-21T03:40:58.038Z,72.03
2018-02-21T03:43:25.516Z,72.51
2018-02-21T03:45:52.968Z,72.48
2018-02-21T03:48:21.216Z,72.91
2018-02-21T03:50:48.741Z,73.28
2018-02-21T03:53:16.236Z,72.69
2018-02-21T03:55:43.918Z,72.64
2018-02-21T03:58:11.373Z,73.71
2018-02-21T04:00:39.345Z,74.87
2018-02-21T04:03:06.888Z,75.31
2018-02-21T04:05:34.356Z,75.27
2018-02-21T04:08:01.841Z,75.04
2018-02-21T04:10:29.289Z,75.25
2018-02-21T04:12:56.739Z,75.10
2018-02-21T04:15:24.216Z,74.53
2018-02-21T04:17:51.669Z,74.29
2018-02-21T04:20:19.355Z,74.00
2018-02-21T04:22:46.806Z,74.06
2018-02-21T04:25:14.276Z,73.52
2018-02-21T04:27:41.745Z,73.85
2018-02-21T04:30:09.202Z,74.54
2018-02-21T04:32:37.193Z,75.64
2018-02-21T04:35:04.642Z,76.44
2018-02-21T04:37:32.089Z,76.81
2018-02-21T04:39:59.565Z,76.93
2018-02-21T04:42:27.020Z,77.59
2018-02-21T04:44:54.645Z,78.16
2018-02-21T04:47:22.141Z,78.10
2018-02-21T04:49:49.593Z,78.15
2018-02-21T04:52:17.093Z,78.07
2018-02-21T04:58:12.205Z,78.20
2018-02-21T05:00:39.708Z,78.66
2018-02-21T05:03:07.193Z,78.61
2018-02-21T05:05:34.657Z,77.85
2018-02-21T05:08:02.117Z,78.55
2018-02-21T05:10:29.588Z,79.02
2018-02-21T05:12:57.060Z,79.29
2018-02-21T05:15:24.570Z,79.71
2018-02-21T05:17:52.421Z,80.10
2018-02-21T05:20:19.870Z,79.56
2018-02-21T05:22:47.338Z,79.08
2018-02-21T05:25:14.785Z,78.48
2018-02-21T05:27:42.369Z,78.07
2018-02-21T05:30:09.817Z,79.03
2018-02-21T05:32:37.296Z,79.60
2018-02-21T05:35:04.786Z,79.45
2018-02-21T05:37:32.243Z,79.70
2018-02-21T05:39:59.909Z,79.50
2018-02-21T05:42:27.436Z,79.93
2018-02-21T05:44:54.885Z,80.07
2018-02-21T05:47:22.361Z,80.42
2018-02-21T05:49:49.837Z,80.99
2018-02-21T05:52:17.469Z,80.90
2018-02-21T05:54:44.916Z,81.02
2018-02-21T05:57:12.390Z,81.53
2018-02-21T05:59:39.860Z,81.92
2018-02-21T06:02:07.312Z,81.84
2018-02-21T06:04:35.602Z,81.92
2018-02-21T06:07:03.065Z,81.81
2018-02-21T06:09:30.513Z,80.78
2018-02-21T06:11:57.993Z,80.41
2018-02-21T06:14:25.449Z,79.13
2018-02-21T06:16:52.925Z,79.18
2018-02-21T06:19:20.377Z,80.23
2018-02-21T06:21:47.826Z,80.63
2018-02-21T06:24:15.313Z,81.03
2018-02-21T06:26:42.786Z,81.16
2018-02-21T06:29:10.451Z,81.54
2018-02-21T06:31:37.937Z,81.46
2018-02-21T06:34:05.389Z,81.73
2018-02-21T06:36:32.858Z,81.88
2018-02-21T06:39:00.317Z,81.84
2018-02-21T06:41:28.048Z,81.76
2018-02-21T06:43:55.502Z,82.07
2018-02-21T06:46:22.952Z,82.04
2018-02-21T06:48:50.449Z,82.24
2018-02-21T06:51:17.909Z,81.07
2018-02-21T06:53:45.483Z,80.76
2018-02-21T06:56:12.945Z,79.13
2018-02-21T06:58:40.392Z,77.81
2018-02-21T07:01:07.893Z,76.99
2018-02-21T07:03:35.457Z,77.30
2018-02-21T07:06:03.009Z,77.41
2018-02-21T07:08:30.465Z,76.87
2018-02-21T07:10:57.916Z,77.08
2018-02-21T07:13:25.409Z,77.03
2018-02-21T07:15:52.873Z,76.81
2018-02-21T07:18:20.362Z,76.31
2018-02-21T07:20:47.847Z,76.81
2018-02-21T07:23:15.310Z,76.94
2018-02-21T07:25:42.788Z,76.46
2018-02-21T07:28:10.241Z,76.38
2018-02-21T07:30:38.113Z,76.61
2018-02-21T07:33:05.558Z,75.03
2018-02-21T07:35:33.494Z,75.13
2018-02-21T07:38:00.965Z,74.65
2018-02-21T07:40:28.413Z,74.55
2018-02-21T07:42:56.156Z,74.65
2018-02-21T07:45:23.612Z,73.01
2018-02-21T07:47:51.057Z,73.23
2018-02-21T07:50:19.626Z,72.93
2018-02-21T07:52:47.073Z,72.56
2018-02-21T07:55:14.560Z,72.30
2018-02-21T07:57:42.001Z,71.70
2018-02-21T08:00:09.449Z,72.89
2018-02-21T08:02:36.977Z,73.03
2018-02-21T08:05:04.444Z,72.90
2018-02-21T08:07:31.930Z,72.91
2018-02-21T08:09:59.381Z,72.93
2018-02-21T08:12:26.833Z,72.71
2018-02-21T08:14:54.320Z,72.70
2018-02-21T08:17:21.778Z,71.84
2018-02-21T08:19:49.484Z,72.79
2018-02-21T08:22:16.932Z,71.64
2018-02-21T08:24:44.396Z,72.53
2018-02-21T08:27:11.901Z,71.17
2018-02-21T08:29:39.353Z,70.79
2018-02-21T08:32:06.850Z,69.63
2018-02-21T08:34:34.313Z,68.83
2018-02-21T08:37:02.339Z,66.88
2018-02-21T08:39:29.832Z,66.08
2018-02-21T08:41:57.292Z,65.67
2018-02-21T08:44:25.054Z,66.48
2018-02-21T08:46:52.505Z,65.94
2018-02-21T08:49:20.298Z,65.70
2018-02-21T08:51:47.865Z,65.75
2018-02-21T08:54:15.328Z,65.75
2018-02-21T08:56:42.832Z,63.86
2018-02-21T08:59:10.285Z,64.45
2018-02-21T09:01:37.737Z,63.26
2018-02-21T09:04:05.285Z,62.91
2018-02-21T09:06:32.701Z,63.87
2018-02-21T09:09:00.200Z,63.05
2018-02-21T09:11:27.656Z,62.71
2018-02-21T09:13:55.126Z,62.81
2018-02-21T09:16:22.609Z,62.50
2018-02-21T09:18:50.066Z,61.68
2018-02-21T09:21:17.554Z,61.68
2018-02-21T09:23:45.031Z,62.06
2018-02-21T09:26:12.477Z,61.79
2018-02-21T09:28:39.961Z,62.21
2018-02-21T09:31:07.416Z,61.59
2018-02-21T09:33:35.085Z,60.77
2018-02-21T09:36:02.613Z,60.56
2018-02-21T09:38:30.065Z,59.58
2018-02-21T09:40:57.537Z,59.42
2018-02-21T09:43:25.005Z,59.14
2018-02-21T09:45:53.481Z,58.80
2018-02-21T09:48:21.937Z,57.60
2018-02-21T09:50:49.630Z,58.32
2018-02-21T09:53:17.141Z,57.97
2018-02-21T09:55:44.611Z,58.57
2018-02-21T09:58:12.317Z,57.54
2018-02-21T10:00:40.125Z,58.51
2018-02-21T10:03:07.581Z,57.64
2018-02-21T10:05:35.074Z,55.11
2018-02-21T10:08:02.518Z,55.80
2018-02-21T10:10:30.021Z,55.32
2018-02-21T10:13:02.171Z,55.47
2018-02-21T10:15:30.014Z,56.37
2018-02-21T10:17:57.489Z,56.23
2018-02-21T10:20:24.981Z,54.81
2018-02-21T10:22:52.421Z,55.17
2018-02-21T10:25:19.900Z,55.25
2018-02-21T10:27:47.626Z,55.46
2018-02-21T10:30:15.085Z,56.48
2018-02-21T10:32:45.601Z,57.37
2018-02-21T10:35:13.425Z,57.31
2018-02-21T10:37:40.904Z,57.94
2018-02-21T10:40:18.029Z,57.40
2018-02-21T10:42:45.500Z,57.23
2018-02-21T10:45:12.969Z,57.12
2018-02-21T10:47:41.041Z,56.25
2018-02-21T10:50:08.489Z,56.81
2018-02-21T10:52:36.133Z,56.36
2018-02-21T10:55:03.586Z,56.53
2018-02-21T10:57:31.048Z,57.10
2018-02-21T10:59:58.532Z,58.07
2018-02-21T11:02:25.990Z,56.75
2018-02-21T11:04:55.216Z,56.71
2018-02-21T11:07:22.645Z,55.20
2018-02-21T11:09:50.093Z,56.55
2018-02-21T11:12:17.561Z,56.26
2018-02-21T11:14:45.039Z,56.58
2018-02-21T11:17:12.533Z,56.29
2018-02-21T11:19:39.982Z,56.85
2018-02-21T11:22:07.467Z,56.49
2018-02-21T11:24:35.163Z,55.95
2018-02-21T11:27:02.613Z,55.94
2018-02-21T11:29:30.398Z,53.54
2018-02-21T11:31:57.874Z,54.38
2018-02-21T11:34:25.345Z,54.35
2018-02-21T11:36:52.828Z,54.91
2018-02-21T11:39:20.313Z,54.55
2018-02-21T11:41:47.874Z,53.67
2018-02-21T11:44:15.324Z,53.01
2018-02-21T11:46:43.180Z,53.26
2018-02-21T11:49:10.766Z,52.53
2018-02-21T11:51:38.222Z,53.76
2018-02-21T11:54:05.950Z,51.62
2018-02-21T11:56:33.399Z,51.82
2018-02-21T11:59:00.940Z,53.47
2018-02-21T12:01:28.425Z,53.35
2018-02-21T12:03:55.873Z,52.80
2018-02-21T12:06:23.500Z,53.50
2018-02-21T12:08:50.962Z,52.86
2018-02-21T12:11:18.413Z,51.95
2018-02-21T12:13:45.877Z,52.26
2018-02-21T12:16:13.353Z,52.15
2018-02-21T12:18:40.944Z,53.12
2018-02-21T12:21:08.406Z,51.07
2018-02-21T12:23:35.854Z,51.00
2018-02-21T12:26:03.322Z,52.17
2018-02-21T12:28:30.776Z,51.32
2018-02-21T12:30:58.398Z,51.17
2018-02-21T12:33:25.861Z,51.00
2018-02-21T12:35:53.316Z,50.62
2018-02-21T12:38:20.817Z,50.71
2018-02-21T12:40:53.963Z,50.68
2018-02-21T12:43:21.508Z,49.70
2018-02-21T12:45:48.965Z,50.99
2018-02-21T12:48:16.470Z,51.38
2018-02-21T12:50:43.929Z,50.74
2018-02-21T12:53:11.418Z,51.14
2018-02-21T12:55:38.877Z,51.07
2018-02-21T12:58:06.338Z,49.44
2018-02-21T13:00:34.165Z,50.39
2018-02-21T13:03:01.630Z,50.38
2018-02-21T13:05:29.096Z,49.39
2018-02-21T13:07:56.569Z,50.52
2018-02-21T13:10:24.029Z,49.86
2018-02-21T13:12:51.525Z,49.57
2018-02-21T13:15:18.979Z,48.97
2018-02-21T13:17:46.432Z,48.85
2018-02-21T13:20:14.198Z,49.43
2018-02-21T13:22:41.645Z,48.85
2018-02-21T13:25:09.147Z,47.82
2018-02-21T13:27:36.610Z,48.97
2018-02-21T13:30:04.067Z,51.16
2018-02-21T13:32:31.805Z,51.21
2018-02-21T13:34:59.266Z,51.08
2018-02-21T13:37:26.718Z,51.41
2018-02-21T13:39:54.193Z,50.99
2018-02-21T13:42:21.653Z,50.68
2018-02-21T13:44:50.265Z,51.64
2018-02-21T13:47:17.741Z,51.44
2018-02-21T13:49:45.200Z,52.01
2018-02-21T13:52:12.677Z,51.62
2018-02-21T13:54:40.134Z,51.19
2018-02-21T13:57:07.809Z,51.05
2018-02-21T13:59:35.274Z,50.41
2018-02-21T14:02:02.733Z,52.03
2018-02-21T14:04:30.210Z,52.22
2018-02-21T14:06:58.018Z,51.07
2018-02-21T14:09:25.689Z,51.71
2018-02-21T14:11:53.138Z,51.84
2018-02-21T14:14:20.593Z,52.46
2018-02-21T14:16:48.060Z,52.08
2018-02-21T14:19:15.915Z,51.79
2018-02-21T14:21:43.401Z,52.40
2018-02-21T14:24:10.870Z,52.20
2018-02-21T14:26:38.321Z,51.05
2018-02-21T14:29:05.824Z,50.90
2018-02-21T14:31:33.260Z,51.57
2018-02-21T14:34:00.979Z,50.79
2018-02-21T14:36:28.432Z,51.32
2018-02-21T14:38:55.884Z,50.59
2018-02-21T14:41:23.361Z,49.27
2018-02-21T14:43:50.809Z,47.73
2018-02-21T14:46:18.299Z,48.08
2018-02-21T14:48:45.752Z,48.47
2018-02-21T14:51:13.221Z,47.78
2018-02-21T14:53:40.694Z,47.95
2018-02-21T14:56:08.145Z,48.41
2018-02-21T14:58:35.782Z,48.60
2018-02-21T15:01:03.253Z,48.80
2018-02-21T15:03:30.710Z,48.49
2018-02-21T15:05:58.364Z,47.77
2018-02-21T15:08:25.932Z,48.28
2018-02-21T15:10:53.636Z,47.36
2018-02-21T15:13:21.102Z,48.28
2018-02-21T15:15:48.554Z,47.79
2018-02-21T15:18:16.026Z,48.89
2018-02-21T15:20:43.486Z,49.64
2018-02-21T15:23:10.982Z,48.71
2018-02-21T15:25:38.446Z,48.80
2018-02-21T15:28:05.906Z,49.76
2018-02-21T15:30:33.381Z,49.15
2018-02-21T15:33:00.826Z,48.47
2018-02-21T15:35:28.301Z,49.78
2018-02-21T15:37:55.781Z,49.58
2018-02-21T15:40:23.245Z,49.84
2018-02-21T15:42:50.725Z,49.41
2018-02-21T15:45:18.226Z,49.26
2018-02-21T15:47:45.695Z,49.06
2018-02-21T15:50:13.162Z,49.54
2018-02-21T15:52:41.502Z,50.59
2018-02-21T15:55:08.978Z,50.44
2018-02-21T15:57:36.438Z,51.26
2018-02-21T16:00:03.918Z,52.05
2018-02-21T16:02:31.376Z,52.08
2018-02-21T16:04:58.853Z,50.03
2018-02-21T16:07:26.350Z,50.95
2018-02-21T16:09:53.805Z,52.14
2018-02-21T16:12:21.290Z,51.81
2018-02-21T16:14:48.777Z,52.00
2018-02-21T16:17:16.257Z,52.94
2018-02-21T16:19:43.745Z,53.27
2018-02-21T16:22:11.201Z,53.50
2018-02-21T16:24:38.646Z,54.34
2018-02-21T16:27:06.150Z,54.87
2018-02-21T16:29:33.702Z,55.73
2018-02-21T16:32:01.206Z,56.19
2018-02-21T16:34:28.686Z,56.29
2018-02-21T16:36:56.134Z,57.13
2018-02-21T16:39:23.830Z,57.05
2018-02-21T16:41:51.361Z,57.34
2018-02-21T16:44:18.809Z,57.80
2018-02-21T16:46:46.262Z,58.13
2018-02-21T16:49:13.968Z,58.39
2018-02-21T16:51:41.841Z,58.70
2018-02-21T16:54:14.866Z,59.41
2018-02-21T16:56:42.469Z,59.71
2018-02-21T16:59:09.920Z,59.97
2018-02-21T17:01:37.421Z,60.50
2018-02-21T17:04:04.892Z,59.81
2018-02-21T17:06:32.341Z,59.82
2018-02-21T17:08:59.969Z,59.71
2018-02-21T17:11:27.445Z,59.84
2018-02-21T17:13:55.424Z,60.86
2018-02-21T17:16:23.189Z,61.16
2018-02-21T17:18:50.648Z,61.93
2018-02-21T17:21:18.097Z,61.11
2018-02-21T17:23:45.580Z,61.34
2018-02-21T17:26:13.092Z,61.55
2018-02-21T17:28:40.864Z,61.95
2018-02-21T17:31:08.344Z,62.02
2018-02-21T17:33:35.796Z,62.50
2018-02-21T17:36:03.290Z,62.65
2018-02-21T17:38:30.736Z,63.19
2018-02-21T17:41:03.977Z,63.05
2018-02-21T17:43:31.428Z,62.92
2018-02-21T17:45:58.873Z,62.91
2018-02-21T17:48:26.358Z,62.60
2018-02-21T17:50:53.828Z,63.05
2018-02-21T17:53:21.481Z,62.84
2018-02-21T17:55:49.006Z,62.39
2018-02-21T17:58:16.458Z,63.02
2018-02-21T18:00:44.328Z,63.39
2018-02-21T18:03:11.790Z,63.23
2018-02-21T18:05:39.458Z,63.17
2018-02-21T18:08:06.904Z,63.42
2018-02-21T18:10:34.373Z,63.46
2018-02-21T18:13:01.874Z,63.24
2018-02-21T18:15:29.371Z,62.60
2018-02-21T18:17:56.856Z,63.09
2018-02-21T18:20:24.310Z,63.35
2018-02-21T18:22:51.761Z,63.83
2018-02-21T18:25:19.237Z,63.35
2018-02-21T18:27:46.715Z,63.22
2018-02-21T18:30:14.200Z,63.40
2018-02-21T18:32:41.673Z,63.44
2018-02-21T18:35:09.138Z,62.74
2018-02-21T18:37:36.615Z,63.63
2018-02-21T18:40:04.069Z,63.49
2018-02-21T18:42:31.994Z,64.27
2018-02-21T18:44:59.690Z,64.10
2018-02-21T18:47:27.911Z,64.23
2018-02-21T18:49:55.397Z,63.59
2018-02-21T18:52:22.888Z,65.45
2018-02-21T18:54:50.577Z,66.66
2018-02-21T18:57:18.021Z,66.42
2018-02-21T18:59:45.557Z,65.50
2018-02-21T19:02:13.033Z,64.32
2018-02-21T19:04:40.477Z,63.27
2018-02-21T19:07:08.337Z,63.05
2018-02-21T19:09:35.797Z,63.23
2018-02-21T19:12:03.266Z,63.26
2018-02-21T19:14:30.745Z,63.28
2018-02-21T19:16:58.206Z,62.71
2018-02-21T19:19:25.689Z,63.18
2018-02-21T19:21:53.137Z,63.28
2018-02-21T19:24:20.585Z,63.59
2018-02-21T19:26:48.061Z,63.49
2018-02-21T19:29:15.512Z,63.47
2018-02-21T19:31:43.143Z,63.78
2018-02-21T19:34:10.661Z,64.21
2018-02-21T19:36:38.113Z,64.82
2018-02-21T19:39:05.610Z,65.45
2018-02-21T19:41:33.069Z,65.64
2018-02-21T19:44:00.888Z,65.44
2018-02-21T19:46:28.721Z,66.02
2018-02-21T19:48:56.171Z,66.20
2018-02-21T19:51:23.656Z,66.99
2018-02-21T19:53:51.106Z,66.90
2018-02-21T19:56:18.877Z,67.04
2018-02-21T19:58:46.342Z,66.82
2018-02-21T20:01:13.789Z,65.89
2018-02-21T20:03:41.265Z,66.62
2018-02-21T20:06:08.722Z,66.04
2018-02-21T20:08:36.225Z,65.81
2018-02-21T20:11:03.689Z,65.48
2018-02-21T20:13:31.142Z,66.69
2018-02-21T20:15:58.625Z,66.03
2018-02-21T20:18:26.072Z,66.21
2018-02-21T20:20:53.881Z,66.00
2018-02-21T20:23:21.378Z,66.14
2018-02-21T20:25:48.830Z,66.33
2018-02-21T20:28:16.314Z,66.80
2018-02-21T20:30:43.816Z,66.84
2018-02-21T20:33:12.065Z,67.28
2018-02-21T20:35:39.539Z,67.24
2018-02-21T20:38:07.017Z,66.74
2018-02-21T20:40:34.490Z,67.30
2018-02-21T20:43:01.937Z,67.12
2018-02-21T20:45:29.882Z,67.49
2018-02-21T20:47:57.329Z,67.44
2018-02-21T20:50:24.782Z,68.34
2018-02-21T20:52:52.253Z,67.61
2018-02-21T20:55:19.706Z,68.05
2018-02-21T20:57:47.438Z,67.85
2018-02-21T21:00:14.886Z,68.23
2018-02-21T21:02:42.497Z,68.46
2018-02-21T21:05:09.981Z,68.69
2018-02-21T21:07:37.892Z,68.14
2018-02-21T21:10:05.706Z,68.50
2018-02-21T21:12:33.166Z,68.47
2018-02-21T21:15:00.624Z,68.74
2018-02-21T21:17:29.973Z,68.82
2018-02-21T21:19:57.707Z,69.10
2018-02-21T21:22:25.626Z,68.18
2018-02-21T21:24:53.081Z,68.74
2018-02-21T21:27:20.533Z,69.06
2018-02-21T21:29:48.017Z,68.59
2018-02-21T21:32:15.510Z,69.02
2018-02-21T21:34:43.190Z,69.47
2018-02-21T21:37:10.643Z,69.38
2018-02-21T21:39:38.111Z,69.38
2018-02-21T21:42:05.581Z,69.12
2018-02-21T21:44:33.052Z,68.71
2018-02-21T21:47:01.237Z,69.53
2018-02-21T21:49:32.867Z,68.98
2018-02-21T21:51:56.160Z,69.37
2018-02-21T21:54:23.636Z,69.22
2018-02-21T21:56:51.081Z,69.04
2018-02-21T21:59:18.590Z,68.49
2018-02-21T22:01:46.037Z,69.55
2018-02-21T22:04:13.489Z,69.45
2018-02-21T22:06:41.069Z,69.72
2018-02-21T22:09:08.534Z,69.64
2018-02-21T22:11:36.305Z,69.52
2018-02-21T22:14:04.047Z,69.03
2018-02-21T22:16:31.831Z,69.26
2018-02-21T22:18:59.613Z,69.48
2018-02-21T22:21:27.061Z,69.67
2018-02-21T22:23:54.708Z,69.78
2018-02-21T22:26:22.164Z,69.43
2018-02-21T22:28:49.636Z,69.68
2018-02-21T22:31:17.132Z,68.80
2018-02-21T22:33:44.581Z,69.03
2018-02-21T22:36:12.052Z,69.23
2018-02-21T22:38:39.525Z,69.84
2018-02-21T22:41:06.981Z,69.54
2018-02-21T22:43:34.449Z,70.15
2018-02-21T22:46:01.944Z,70.48
2018-02-21T22:48:29.609Z,70.42
2018-02-21T22:50:57.057Z,70.37
2018-02-21T22:53:24.752Z,70.96
2018-02-21T22:55:52.278Z,71.18
2018-02-21T22:58:19.738Z,70.84
2018-02-21T23:00:47.239Z,70.43
2018-02-21T23:03:14.690Z,70.24
2018-02-21T23:05:42.960Z,70.04
2018-02-21T23:08:10.436Z,69.78
2018-02-21T23:10:38.116Z,69.69
2018-02-21T23:13:05.657Z,69.63
2018-02-21T23:15:33.109Z,69.56
2018-02-21T23:18:00.569Z,69.67
2018-02-21T23:20:28.045Z,69.61
2018-02-21T23:22:55.489Z,69.69
2018-02-21T23:25:22.973Z,69.88
2018-02-21T23:27:50.420Z,69.65
2018-02-21T23:30:17.877Z,69.29
2018-02-21T23:32:45.354Z,69.01
2018-02-21T23:35:12.805Z,69.07
2018-02-21T23:37:40.649Z,69.01
2018-02-21T23:40:08.120Z,69.65
2018-02-21T23:42:35.614Z,69.07
2018-02-21T23:45:03.097Z,69.10
2018-02-21T23:47:30.577Z,69.06
2018-02-21T23:49:58.297Z,69.12
2018-02-21T23:52:26.128Z,69.13
2018-02-21T23:54:53.596Z,68.83
2018-02-21T23:57:21.069Z,68.36
2018-02-21T23:59:48.547Z,68.32
